createdAt,value
2023-05-22T00:00:12.062Z,28.85
2023-05-22T00:00:42.090Z,28.84
2023-05-22T00:01:12.113Z,28.85
2023-05-22T00:01:42.152Z,28.86
2023-05-22T00:02:12.214Z,28.85
2023-05-22T00:02:42.386Z,28.84
2023-05-22T00:03:12.466Z,28.81
2023-05-22T00:03:42.396Z,28.86
2023-05-22T00:04:12.434Z,28.84
2023-05-22T00:04:42.483Z,28.85
2023-05-22T00:05:12.584Z,28.82
2023-05-22T00:05:42.511Z,28.84
2023-05-22T00:06:12.575Z,28.84
2023-05-22T00:06:42.596Z,28.84
2023-05-22T00:07:12.629Z,28.85
2023-05-22T00:07:42.651Z,28.85
2023-05-22T00:08:12.688Z,28.81
2023-05-22T00:08:42.722Z,28.81
2023-05-22T00:09:12.761Z,28.84
2023-05-22T00:09:42.792Z,28.82
2023-05-22T00:10:12.832Z,28.84
2023-05-22T00:10:42.864Z,28.82
2023-05-22T00:11:12.894Z,28.85
2023-05-22T00:11:42.945Z,28.79
2023-05-22T00:12:12.998Z,28.79
2023-05-22T00:12:42.997Z,28.84
2023-05-22T00:13:13.057Z,28.82
2023-05-22T00:13:43.068Z,28.84
2023-05-22T00:14:13.096Z,28.81
2023-05-22T00:14:43.128Z,28.82
2023-05-22T00:15:13.164Z,28.84
2023-05-22T00:15:43.202Z,28.82
2023-05-22T00:16:13.234Z,28.82
2023-05-22T00:16:43.318Z,28.82
2023-05-22T00:17:13.468Z,28.82
2023-05-22T00:17:43.420Z,28.81
2023-05-22T00:18:13.521Z,28.81
2023-05-22T00:18:43.512Z,28.81
2023-05-22T00:19:13.818Z,28.82
2023-05-22T00:19:43.597Z,28.81
2023-05-22T00:20:13.598Z,28.81
2023-05-22T00:20:43.710Z,28.82
2023-05-22T00:21:13.828Z,28.81
2023-05-22T00:21:43.827Z,28.82
2023-05-22T00:22:13.944Z,28.81
2023-05-22T00:22:43.946Z,28.82
2023-05-22T00:23:44.027Z,28.79
2023-05-22T00:24:14.111Z,28.82
2023-05-22T00:24:44.229Z,28.81
2023-05-22T00:25:14.348Z,28.81
2023-05-22T00:25:44.460Z,28.79
2023-05-22T00:26:14.461Z,28.79
2023-05-22T00:27:14.549Z,28.81
2023-05-22T00:27:44.544Z,28.79
2023-05-22T00:28:14.569Z,28.79
2023-05-22T00:28:44.579Z,28.82
2023-05-22T00:29:14.607Z,28.81
2023-05-22T00:29:44.643Z,28.79
2023-05-22T00:30:14.674Z,28.81
2023-05-22T00:30:44.739Z,28.79
2023-05-22T00:31:14.761Z,28.79
2023-05-22T00:31:44.798Z,28.78
2023-05-22T00:32:14.841Z,28.79
2023-05-22T00:32:44.964Z,28.78
2023-05-22T00:33:14.993Z,28.79
2023-05-22T00:33:45.048Z,28.77
2023-05-22T00:34:15.088Z,28.79
2023-05-22T00:34:45.222Z,28.81
2023-05-22T00:35:15.183Z,28.78
2023-05-22T00:35:45.212Z,28.78
2023-05-22T00:36:15.247Z,28.77
2023-05-22T00:36:45.283Z,28.79
2023-05-22T00:37:15.316Z,28.78
2023-05-22T00:37:45.353Z,28.79
2023-05-22T00:38:15.376Z,28.79
2023-05-22T00:38:45.408Z,28.79
2023-05-22T00:39:15.447Z,28.77
2023-05-22T00:39:45.483Z,28.78
2023-05-22T00:40:15.544Z,28.78
2023-05-22T00:40:45.543Z,28.78
2023-05-22T00:41:15.583Z,28.75
2023-05-22T00:41:45.621Z,28.81
2023-05-22T00:42:15.660Z,28.77
2023-05-22T00:42:45.714Z,28.78
2023-05-22T00:43:15.746Z,28.78
2023-05-22T00:43:45.810Z,28.79
2023-05-22T00:44:15.821Z,28.79
2023-05-22T00:44:45.856Z,28.75
2023-05-22T00:45:15.901Z,28.78
2023-05-22T00:45:45.918Z,28.77
2023-05-22T00:46:15.974Z,28.78
2023-05-22T00:46:46.050Z,28.77
2023-05-22T00:47:16.108Z,28.78
2023-05-22T00:47:46.170Z,28.77
2023-05-22T00:48:16.225Z,28.77
2023-05-22T00:48:46.248Z,28.75
2023-05-22T00:49:16.289Z,28.78
2023-05-22T00:49:46.320Z,28.77
2023-05-22T00:50:16.348Z,28.77
2023-05-22T00:50:46.396Z,28.75
2023-05-22T00:51:16.456Z,28.75
2023-05-22T00:51:46.460Z,28.75
2023-05-22T00:52:16.498Z,28.77
2023-05-22T00:52:46.528Z,28.75
2023-05-22T00:53:16.560Z,28.75
2023-05-22T00:53:46.598Z,28.77
2023-05-22T00:54:16.623Z,28.77
2023-05-22T00:54:46.659Z,28.75
2023-05-22T00:55:16.697Z,28.77
2023-05-22T00:55:46.729Z,28.75
2023-05-22T00:56:16.763Z,28.77
2023-05-22T00:56:46.796Z,28.75
2023-05-22T00:57:16.829Z,28.77
2023-05-22T00:57:46.855Z,28.77
2023-05-22T00:58:16.887Z,28.77
2023-05-22T00:58:46.919Z,28.77
2023-05-22T00:59:16.994Z,28.77
2023-05-22T00:59:47.024Z,28.77
2023-05-22T01:00:17.097Z,28.77
2023-05-22T01:00:47.114Z,28.75
2023-05-22T01:01:17.156Z,28.74
2023-05-22T01:01:47.209Z,28.75
2023-05-22T01:02:17.258Z,28.75
2023-05-22T01:02:47.419Z,28.75
2023-05-22T01:03:17.412Z,28.75
2023-05-22T01:03:47.613Z,28.75
2023-05-22T01:04:17.548Z,28.75
2023-05-22T01:04:47.585Z,28.75
2023-05-22T01:05:17.621Z,28.74
2023-05-22T01:05:47.651Z,28.75
2023-05-22T01:06:17.683Z,28.75
2023-05-22T01:06:47.846Z,28.78
2023-05-22T01:07:17.851Z,28.75
2023-05-22T01:07:47.828Z,28.74
2023-05-22T01:08:17.858Z,28.75
2023-05-22T01:08:47.909Z,28.74
2023-05-22T01:09:17.945Z,28.74
2023-05-22T01:09:48.035Z,28.75
2023-05-22T01:10:18.055Z,28.75
2023-05-22T01:10:48.087Z,28.73
2023-05-22T01:11:18.117Z,28.75
2023-05-22T01:11:48.156Z,28.75
2023-05-22T01:12:18.187Z,28.75
2023-05-22T01:12:48.222Z,28.75
2023-05-22T01:13:18.250Z,28.75
2023-05-22T01:13:48.286Z,28.75
2023-05-22T01:14:18.324Z,28.75
2023-05-22T01:14:48.384Z,28.74
2023-05-22T01:15:18.391Z,28.75
2023-05-22T01:15:48.480Z,28.74
2023-05-22T01:16:18.552Z,28.74
2023-05-22T01:16:48.724Z,28.74
2023-05-22T01:17:18.619Z,28.75
2023-05-22T01:17:48.749Z,28.73
2023-05-22T01:18:18.714Z,28.74
2023-05-22T01:18:48.855Z,28.74
2023-05-22T01:19:18.954Z,28.73
2023-05-22T01:19:48.971Z,28.75
2023-05-22T01:20:18.964Z,28.74
2023-05-22T01:20:49.083Z,28.73
2023-05-22T01:21:19.090Z,28.74
2023-05-22T01:22:19.170Z,28.73
2023-05-22T01:22:49.292Z,28.71
2023-05-22T01:23:19.293Z,28.73
2023-05-22T01:23:49.295Z,28.71
2023-05-22T01:24:19.294Z,28.75
2023-05-22T01:24:49.286Z,28.73
2023-05-22T01:25:19.401Z,28.74
2023-05-22T01:25:49.398Z,28.70
2023-05-22T01:26:49.469Z,28.74
2023-05-22T01:27:19.598Z,28.71
2023-05-22T01:27:49.590Z,28.73
2023-05-22T01:28:19.612Z,28.71
2023-05-22T01:28:49.656Z,28.73
2023-05-22T01:29:19.677Z,28.71
2023-05-22T01:29:49.710Z,28.73
2023-05-22T01:30:19.766Z,28.73
2023-05-22T01:30:49.770Z,28.71
2023-05-22T01:31:19.806Z,28.73
2023-05-22T01:31:49.834Z,28.73
2023-05-22T01:32:19.880Z,28.70
2023-05-22T01:32:50.029Z,28.73
2023-05-22T01:33:20.054Z,28.73
2023-05-22T01:33:50.125Z,28.73
2023-05-22T01:34:20.057Z,28.71
2023-05-22T01:34:50.085Z,28.73
2023-05-22T01:35:20.132Z,28.71
2023-05-22T01:35:50.158Z,28.71
2023-05-22T01:36:20.242Z,28.70
2023-05-22T01:36:50.303Z,28.71
2023-05-22T01:37:20.341Z,28.70
2023-05-22T01:37:50.362Z,28.73
2023-05-22T01:38:20.402Z,28.71
2023-05-22T01:38:50.444Z,28.70
2023-05-22T01:39:20.471Z,28.70
2023-05-22T01:39:50.517Z,28.71
2023-05-22T01:40:20.562Z,28.71
2023-05-22T01:40:50.578Z,28.70
2023-05-22T01:41:20.621Z,28.71
2023-05-22T01:41:50.646Z,28.71
2023-05-22T01:42:20.694Z,28.68
2023-05-22T01:42:50.722Z,28.71
2023-05-22T01:43:20.778Z,28.71
2023-05-22T01:43:50.795Z,28.71
2023-05-22T01:44:20.826Z,28.71
2023-05-22T01:44:50.856Z,28.70
2023-05-22T01:45:20.892Z,28.70
2023-05-22T01:45:50.975Z,28.71
2023-05-22T01:46:21.030Z,28.73
2023-05-22T01:46:51.027Z,28.71
2023-05-22T01:47:21.126Z,28.70
2023-05-22T01:47:51.143Z,28.70
2023-05-22T01:48:21.173Z,28.68
2023-05-22T01:48:51.201Z,28.73
2023-05-22T01:49:21.236Z,28.70
2023-05-22T01:49:51.263Z,28.70
2023-05-22T01:50:21.315Z,28.68
2023-05-22T01:50:51.368Z,28.71
2023-05-22T01:51:21.378Z,28.70
2023-05-22T01:51:51.411Z,28.68
2023-05-22T01:52:21.454Z,28.70
2023-05-22T01:52:51.506Z,28.68
2023-05-22T01:53:21.524Z,28.70
2023-05-22T01:53:51.559Z,28.70
2023-05-22T01:54:21.588Z,28.70
2023-05-22T01:54:51.621Z,28.71
2023-05-22T01:55:21.660Z,28.71
2023-05-22T01:55:51.704Z,28.73
2023-05-22T01:56:21.728Z,28.70
2023-05-22T01:56:51.786Z,28.70
2023-05-22T01:57:21.852Z,28.68
2023-05-22T01:57:51.867Z,28.68
2023-05-22T01:58:21.897Z,28.73
2023-05-22T01:58:51.942Z,28.71
2023-05-22T01:59:21.989Z,28.67
2023-05-22T01:59:52.005Z,28.68
2023-05-22T02:00:22.043Z,28.70
2023-05-22T02:00:52.092Z,28.68
2023-05-22T02:01:22.175Z,28.70
2023-05-22T02:01:52.264Z,28.68
2023-05-22T02:02:22.388Z,28.68
2023-05-22T02:02:52.416Z,28.67
2023-05-22T02:03:22.532Z,28.70
2023-05-22T02:03:52.417Z,28.67
2023-05-22T02:04:22.452Z,28.67
2023-05-22T02:04:52.497Z,28.70
2023-05-22T02:05:22.515Z,28.68
2023-05-22T02:05:52.542Z,28.68
2023-05-22T02:06:22.578Z,28.70
2023-05-22T02:06:52.615Z,28.68
2023-05-22T02:07:22.647Z,28.68
2023-05-22T02:07:52.669Z,28.70
2023-05-22T02:08:22.714Z,28.70
2023-05-22T02:08:52.747Z,28.68
2023-05-22T02:09:22.764Z,28.70
2023-05-22T02:09:52.808Z,28.68
2023-05-22T02:10:22.854Z,28.70
2023-05-22T02:10:52.880Z,28.68
2023-05-22T02:11:22.935Z,28.67
2023-05-22T02:11:52.961Z,28.70
2023-05-22T02:12:22.984Z,28.67
2023-05-22T02:12:53.020Z,28.70
2023-05-22T02:13:23.051Z,28.68
2023-05-22T02:13:53.087Z,28.71
2023-05-22T02:14:23.111Z,28.68
2023-05-22T02:14:53.154Z,28.68
2023-05-22T02:15:23.186Z,28.68
2023-05-22T02:15:53.265Z,28.68
2023-05-22T02:16:23.385Z,28.68
2023-05-22T02:16:53.339Z,28.68
2023-05-22T02:17:23.350Z,28.70
2023-05-22T02:17:53.521Z,28.68
2023-05-22T02:18:23.429Z,28.67
2023-05-22T02:18:53.569Z,28.70
2023-05-22T02:19:23.642Z,28.67
2023-05-22T02:19:53.690Z,28.68
2023-05-22T02:20:23.670Z,28.66
2023-05-22T02:20:53.680Z,28.68
2023-05-22T02:21:53.736Z,28.70
2023-05-22T02:22:23.744Z,28.68
2023-05-22T02:23:23.805Z,28.68
2023-05-22T02:23:53.927Z,28.68
2023-05-22T02:24:24.038Z,28.70
2023-05-22T02:24:54.018Z,28.68
2023-05-22T02:25:54.083Z,28.67
2023-05-22T02:26:24.200Z,28.67
2023-05-22T02:26:54.203Z,28.70
2023-05-22T02:27:54.314Z,28.66
2023-05-22T02:28:24.325Z,28.68
2023-05-22T02:28:54.364Z,28.68
2023-05-22T02:29:24.409Z,28.67
2023-05-22T02:29:54.438Z,28.66
2023-05-22T02:30:24.470Z,28.67
2023-05-22T02:30:54.555Z,28.70
2023-05-22T02:31:24.607Z,28.67
2023-05-22T02:31:54.632Z,28.67
2023-05-22T02:32:24.718Z,28.67
2023-05-22T02:32:54.773Z,28.68
2023-05-22T02:33:24.845Z,28.67
2023-05-22T02:33:54.877Z,28.67
2023-05-22T02:34:24.910Z,28.68
2023-05-22T02:34:54.995Z,28.64
2023-05-22T02:35:25.041Z,28.66
2023-05-22T02:35:55.069Z,28.67
2023-05-22T02:36:25.109Z,28.67
2023-05-22T02:36:55.140Z,28.67
2023-05-22T02:37:25.181Z,28.66
2023-05-22T02:37:55.213Z,28.67
2023-05-22T02:38:25.250Z,28.66
2023-05-22T02:38:55.289Z,28.66
2023-05-22T02:39:25.312Z,28.64
2023-05-22T02:39:55.348Z,28.66
2023-05-22T02:40:25.387Z,28.66
2023-05-22T02:40:55.411Z,28.64
2023-05-22T02:41:25.449Z,28.64
2023-05-22T02:41:55.484Z,28.67
2023-05-22T02:42:25.514Z,28.66
2023-05-22T02:42:55.656Z,28.67
2023-05-22T02:43:25.557Z,28.67
2023-05-22T02:44:25.608Z,28.66
2023-05-22T02:44:55.643Z,28.64
2023-05-22T02:45:25.661Z,28.66
2023-05-22T02:45:55.693Z,28.66
2023-05-22T02:46:25.754Z,28.64
2023-05-22T02:46:55.942Z,28.66
2023-05-22T02:47:25.818Z,28.67
2023-05-22T02:47:56.002Z,28.67
2023-05-22T02:48:25.908Z,28.67
2023-05-22T02:49:26.042Z,28.67
2023-05-22T02:49:56.071Z,28.66
2023-05-22T02:50:26.104Z,28.64
2023-05-22T02:50:56.133Z,28.63
2023-05-22T02:51:26.161Z,28.66
2023-05-22T02:51:56.201Z,28.64
2023-05-22T02:52:26.249Z,28.63
2023-05-22T02:52:56.274Z,28.63
2023-05-22T02:53:26.307Z,28.66
2023-05-22T02:53:56.334Z,28.64
2023-05-22T02:54:26.361Z,28.64
2023-05-22T02:54:56.397Z,28.63
2023-05-22T02:55:26.446Z,28.64
2023-05-22T02:55:56.461Z,28.66
2023-05-22T02:56:26.497Z,28.63
2023-05-22T02:56:56.537Z,28.61
2023-05-22T02:57:26.573Z,28.66
2023-05-22T02:57:56.599Z,28.66
2023-05-22T02:58:26.623Z,28.63
2023-05-22T02:58:56.662Z,28.63
2023-05-22T02:59:26.687Z,28.64
2023-05-22T02:59:56.716Z,28.64
2023-05-22T03:00:26.756Z,28.64
2023-05-22T03:00:56.772Z,28.61
2023-05-22T03:01:26.894Z,28.61
2023-05-22T03:01:56.955Z,28.64
2023-05-22T03:02:27.040Z,28.61
2023-05-22T03:02:56.956Z,28.63
2023-05-22T03:03:27.162Z,28.64
2023-05-22T03:03:57.062Z,28.64
2023-05-22T03:04:57.080Z,28.64
2023-05-22T03:05:27.119Z,28.64
2023-05-22T03:05:57.138Z,28.63
2023-05-22T03:06:27.222Z,28.63
2023-05-22T03:06:57.256Z,28.61
2023-05-22T03:07:27.287Z,28.64
2023-05-22T03:07:57.315Z,28.64
2023-05-22T03:08:27.343Z,28.61
2023-05-22T03:08:57.382Z,28.60
2023-05-22T03:09:27.412Z,28.63
2023-05-22T03:09:57.444Z,28.63
2023-05-22T03:10:27.482Z,28.64
2023-05-22T03:10:57.503Z,28.63
2023-05-22T03:11:27.557Z,28.63
2023-05-22T03:11:57.583Z,28.60
2023-05-22T03:12:27.617Z,28.61
2023-05-22T03:12:57.654Z,28.63
2023-05-22T03:13:27.682Z,28.63
2023-05-22T03:13:57.719Z,28.60
2023-05-22T03:14:27.739Z,28.60
2023-05-22T03:14:57.781Z,28.63
2023-05-22T03:15:27.808Z,28.64
2023-05-22T03:15:57.834Z,28.61
2023-05-22T03:16:27.941Z,28.63
2023-05-22T03:16:57.970Z,28.60
2023-05-22T03:17:28.005Z,28.60
2023-05-22T03:17:58.086Z,28.61
2023-05-22T03:18:28.132Z,28.61
2023-05-22T03:18:58.163Z,28.61
2023-05-22T03:19:28.231Z,28.60
2023-05-22T03:20:28.229Z,28.63
2023-05-22T03:20:58.217Z,28.58
2023-05-22T03:21:58.315Z,28.60
2023-05-22T03:22:28.422Z,28.61
2023-05-22T03:22:58.582Z,28.61
2023-05-22T03:23:28.550Z,28.61
2023-05-22T03:23:58.670Z,28.63
2023-05-22T03:24:28.788Z,28.37
2023-05-22T03:24:58.789Z,28.51
2023-05-22T03:25:58.776Z,28.52
2023-05-22T03:26:28.775Z,28.55
2023-05-22T03:26:58.890Z,28.57
2023-05-22T03:27:29.006Z,28.58
2023-05-22T03:27:59.009Z,28.57
2023-05-22T03:28:29.039Z,28.61
2023-05-22T03:28:59.135Z,28.57
2023-05-22T03:29:29.163Z,28.58
2023-05-22T03:29:59.203Z,28.61
2023-05-22T03:30:29.245Z,28.63
2023-05-22T03:30:59.269Z,28.63
2023-05-22T03:31:29.308Z,28.66
2023-05-22T03:31:59.336Z,28.66
2023-05-22T03:32:29.396Z,28.66
2023-05-22T03:32:59.414Z,28.68
2023-05-22T03:33:29.444Z,28.66
2023-05-22T03:33:59.494Z,28.66
2023-05-22T03:34:29.540Z,28.67
2023-05-22T03:34:59.546Z,28.67
2023-05-22T03:35:29.588Z,28.67
2023-05-22T03:35:59.614Z,28.66
2023-05-22T03:36:32.369Z,28.63
2023-05-22T03:36:59.738Z,28.64
2023-05-22T03:37:29.759Z,28.66
2023-05-22T03:37:59.804Z,28.64
2023-05-22T03:38:29.826Z,28.64
2023-05-22T03:38:59.862Z,28.66
2023-05-22T03:39:29.896Z,28.64
2023-05-22T03:39:59.986Z,28.66
2023-05-22T03:40:30.016Z,28.67
2023-05-22T03:41:00.066Z,28.67
2023-05-22T03:41:30.084Z,28.68
2023-05-22T03:42:00.127Z,28.64
2023-05-22T03:42:30.118Z,28.67
2023-05-22T03:43:00.155Z,28.66
2023-05-22T03:43:30.213Z,28.67
2023-05-22T03:44:00.307Z,28.67
2023-05-22T03:44:30.328Z,28.66
2023-05-22T03:45:00.392Z,28.66
2023-05-22T03:45:30.472Z,28.67
2023-05-22T03:46:00.515Z,28.67
2023-05-22T03:46:30.596Z,28.66
2023-05-22T03:47:00.670Z,28.67
2023-05-22T03:47:30.778Z,28.67
2023-05-22T03:48:00.829Z,28.68
2023-05-22T03:48:30.846Z,28.68
2023-05-22T03:49:00.903Z,28.66
2023-05-22T03:49:30.940Z,28.64
2023-05-22T03:50:00.953Z,28.66
2023-05-22T03:50:30.988Z,28.68
2023-05-22T03:51:01.021Z,28.68
2023-05-22T03:51:31.044Z,28.70
2023-05-22T03:52:01.090Z,28.71
2023-05-22T03:52:31.120Z,28.73
2023-05-22T03:53:01.150Z,28.71
2023-05-22T03:53:31.176Z,28.73
2023-05-22T03:54:01.209Z,28.71
2023-05-22T03:54:31.241Z,28.74
2023-05-22T03:55:01.297Z,28.77
2023-05-22T03:55:31.310Z,28.78
2023-05-22T03:56:01.371Z,28.75
2023-05-22T03:56:31.405Z,28.78
2023-05-22T03:57:01.454Z,28.78
2023-05-22T03:57:31.481Z,28.79
2023-05-22T03:58:01.521Z,28.79
2023-05-22T03:58:31.550Z,28.81
2023-05-22T03:59:01.594Z,28.81
2023-05-22T03:59:31.624Z,28.81
2023-05-22T04:00:01.652Z,28.81
2023-05-22T04:00:31.702Z,28.82
2023-05-22T04:01:01.717Z,28.85
2023-05-22T04:01:31.750Z,28.85
2023-05-22T04:02:01.830Z,28.84
2023-05-22T04:02:31.911Z,28.88
2023-05-22T04:03:02.017Z,28.88
2023-05-22T04:03:32.067Z,28.89
2023-05-22T04:04:02.126Z,28.86
2023-05-22T04:04:32.155Z,28.91
2023-05-22T04:05:02.261Z,28.92
2023-05-22T04:05:32.240Z,28.92
2023-05-22T04:06:32.210Z,28.92
2023-05-22T04:07:02.248Z,28.91
2023-05-22T04:07:32.279Z,28.92
2023-05-22T04:08:02.315Z,28.91
2023-05-22T04:08:32.350Z,28.91
2023-05-22T04:09:02.395Z,28.91
2023-05-22T04:09:32.401Z,28.88
2023-05-22T04:10:02.452Z,28.89
2023-05-22T04:10:32.487Z,28.88
2023-05-22T04:11:02.522Z,28.88
2023-05-22T04:11:32.563Z,28.88
2023-05-22T04:12:02.598Z,28.89
2023-05-22T04:12:32.632Z,28.89
2023-05-22T04:13:02.660Z,28.91
2023-05-22T04:13:32.692Z,28.91
2023-05-22T04:14:02.723Z,28.91
2023-05-22T04:14:32.755Z,28.91
2023-05-22T04:15:02.796Z,28.91
2023-05-22T04:15:32.879Z,28.94
2023-05-22T04:16:02.927Z,28.91
2023-05-22T04:16:33.018Z,28.89
2023-05-22T04:17:03.041Z,28.92
2023-05-22T04:17:33.303Z,28.92
2023-05-22T04:18:03.217Z,28.94
2023-05-22T04:18:33.224Z,28.91
2023-05-22T04:19:03.263Z,28.92
2023-05-22T04:19:33.359Z,28.94
2023-05-22T04:20:03.342Z,28.92
2023-05-22T04:20:33.508Z,28.92
2023-05-22T04:21:03.486Z,28.92
2023-05-22T04:22:03.562Z,28.92
2023-05-22T04:22:33.697Z,28.94
2023-05-22T04:23:03.704Z,28.91
2023-05-22T04:24:03.759Z,28.95
2023-05-22T04:24:33.757Z,28.94
2023-05-22T04:25:33.857Z,28.96
2023-05-22T04:26:03.846Z,28.94
2023-05-22T04:26:33.966Z,28.96
2023-05-22T04:27:03.979Z,28.96
2023-05-22T04:27:34.090Z,28.96
2023-05-22T04:28:04.241Z,28.96
2023-05-22T04:28:34.197Z,28.96
2023-05-22T04:29:04.232Z,28.95
2023-05-22T04:29:34.271Z,28.95
2023-05-22T04:30:04.306Z,28.95
2023-05-22T04:30:34.337Z,28.96
2023-05-22T04:31:04.428Z,28.98
2023-05-22T04:31:34.564Z,28.98
2023-05-22T04:32:04.461Z,28.96
2023-05-22T04:32:34.517Z,28.96
2023-05-22T04:33:04.644Z,28.96
2023-05-22T04:33:34.778Z,28.96
2023-05-22T04:34:04.746Z,28.99
2023-05-22T04:34:34.792Z,28.98
2023-05-22T04:35:04.824Z,28.99
2023-05-22T04:35:34.851Z,28.98
2023-05-22T04:36:05.011Z,28.99
2023-05-22T04:36:34.885Z,29.01
2023-05-22T04:37:35.028Z,29.01
2023-05-22T04:38:05.061Z,28.99
2023-05-22T04:38:35.097Z,29.01
2023-05-22T04:39:05.129Z,29.01
2023-05-22T04:39:35.164Z,28.98
2023-05-22T04:40:05.192Z,28.99
2023-05-22T04:40:35.235Z,28.99
2023-05-22T04:41:05.257Z,29.01
2023-05-22T04:41:35.308Z,29.01
2023-05-22T04:42:05.330Z,29.02
2023-05-22T04:42:35.363Z,29.01
2023-05-22T04:43:05.390Z,28.99
2023-05-22T04:43:35.436Z,29.03
2023-05-22T04:44:05.482Z,29.01
2023-05-22T04:44:35.505Z,29.02
2023-05-22T04:45:05.541Z,29.02
2023-05-22T04:45:35.577Z,29.05
2023-05-22T04:46:05.601Z,29.02
2023-05-22T04:46:35.711Z,29.02
2023-05-22T04:47:07.771Z,29.02
2023-05-22T04:47:35.730Z,29.02
2023-05-22T04:48:05.813Z,29.02
2023-05-22T04:48:35.865Z,29.03
2023-05-22T04:49:05.905Z,29.05
2023-05-22T04:49:35.947Z,29.05
2023-05-22T04:50:05.973Z,29.05
2023-05-22T04:50:36.009Z,29.05
2023-05-22T04:51:06.035Z,29.05
2023-05-22T04:51:36.087Z,29.07
2023-05-22T04:52:06.099Z,29.09
2023-05-22T04:52:36.131Z,29.07
2023-05-22T04:53:06.132Z,29.06
2023-05-22T04:53:36.161Z,29.07
2023-05-22T04:54:06.221Z,29.09
2023-05-22T04:54:36.270Z,29.09
2023-05-22T04:55:06.344Z,29.09
2023-05-22T04:55:36.357Z,29.09
2023-05-22T04:56:06.396Z,29.10
2023-05-22T04:56:37.380Z,29.10
2023-05-22T04:57:06.454Z,29.10
2023-05-22T04:57:36.495Z,29.12
2023-05-22T04:58:06.536Z,29.12
2023-05-22T04:58:36.576Z,29.12
2023-05-22T04:59:06.640Z,29.09
2023-05-22T04:59:36.687Z,29.13
2023-05-22T05:00:06.774Z,29.12
2023-05-22T05:00:36.939Z,29.13
2023-05-22T05:01:06.920Z,29.13
2023-05-22T05:01:37.032Z,29.12
2023-05-22T05:02:07.057Z,29.12
2023-05-22T05:02:37.126Z,29.14
2023-05-22T05:03:07.242Z,29.13
2023-05-22T05:03:37.266Z,29.12
2023-05-22T05:04:07.275Z,29.13
2023-05-22T05:04:37.369Z,29.16
2023-05-22T05:05:07.430Z,29.13
2023-05-22T05:05:37.460Z,29.14
2023-05-22T05:06:07.499Z,29.13
2023-05-22T05:06:37.528Z,29.14
2023-05-22T05:07:07.603Z,29.13
2023-05-22T05:07:37.641Z,29.13
2023-05-22T05:08:07.662Z,29.14
2023-05-22T05:08:37.703Z,29.12
2023-05-22T05:09:07.734Z,29.13
2023-05-22T05:09:37.777Z,29.13
2023-05-22T05:10:07.834Z,29.14
2023-05-22T05:10:38.200Z,29.16
2023-05-22T05:11:07.920Z,29.14
2023-05-22T05:11:37.952Z,29.13
2023-05-22T05:12:07.983Z,29.14
2023-05-22T05:12:38.012Z,29.14
2023-05-22T05:13:08.043Z,29.16
2023-05-22T05:13:38.078Z,29.14
2023-05-22T05:14:08.142Z,29.16
2023-05-22T05:14:38.155Z,29.14
2023-05-22T05:15:08.193Z,29.17
2023-05-22T05:15:38.232Z,29.17
2023-05-22T05:16:08.351Z,29.16
2023-05-22T05:16:38.356Z,29.16
2023-05-22T05:17:08.401Z,29.19
2023-05-22T05:17:38.500Z,29.21
2023-05-22T05:18:08.567Z,29.17
2023-05-22T05:18:38.595Z,29.22
2023-05-22T05:19:08.652Z,29.21
2023-05-22T05:19:38.648Z,29.22
2023-05-22T05:20:08.676Z,29.26
2023-05-22T05:20:39.053Z,29.25
2023-05-22T05:21:08.700Z,29.25
2023-05-22T05:21:38.828Z,29.23
2023-05-22T05:22:08.861Z,29.26
2023-05-22T05:22:38.833Z,29.28
2023-05-22T05:23:08.964Z,29.26
2023-05-22T05:23:38.962Z,29.29
2023-05-22T05:24:09.006Z,29.29
2023-05-22T05:24:38.983Z,29.28
2023-05-22T05:25:11.463Z,29.29
2023-05-22T05:26:18.072Z,29.29
2023-05-22T05:26:48.164Z,29.30
2023-05-22T05:27:18.250Z,29.30
2023-05-22T05:27:48.323Z,29.32
2023-05-22T05:28:18.401Z,29.32
2023-05-22T05:28:48.476Z,29.34
2023-05-22T05:29:18.556Z,29.29
2023-05-22T05:29:48.630Z,29.30
2023-05-22T05:30:20.373Z,29.32
2023-05-22T05:30:48.772Z,29.30
2023-05-22T05:31:18.861Z,29.32
2023-05-22T05:31:49.027Z,29.33
2023-05-22T05:32:19.110Z,29.33
2023-05-22T05:32:49.203Z,29.34
2023-05-22T05:33:19.161Z,29.33
2023-05-22T05:33:49.250Z,29.33
2023-05-22T05:34:19.334Z,29.36
2023-05-22T05:34:49.426Z,29.34
2023-05-22T05:35:19.522Z,29.33
2023-05-22T05:35:49.614Z,29.34
2023-05-22T05:36:19.710Z,29.36
2023-05-22T05:36:49.709Z,29.36
2023-05-22T05:37:19.722Z,29.34
2023-05-22T05:37:49.830Z,29.33
2023-05-22T05:38:19.823Z,29.36
2023-05-22T05:38:49.972Z,29.34
2023-05-22T05:39:19.982Z,29.34
2023-05-22T05:39:49.985Z,29.33
2023-05-22T05:40:20.091Z,29.34
2023-05-22T05:40:50.099Z,29.34
2023-05-22T05:41:20.217Z,29.33
2023-05-22T05:41:50.247Z,29.32
2023-05-22T05:42:20.237Z,29.32
2023-05-22T05:42:50.349Z,29.33
2023-05-22T05:43:20.465Z,29.32
2023-05-22T05:43:50.472Z,29.32
2023-05-22T05:44:50.550Z,29.30
2023-05-22T05:45:20.664Z,29.32
2023-05-22T05:45:50.809Z,29.30
2023-05-22T05:46:20.809Z,29.29
2023-05-22T05:46:50.918Z,29.32
2023-05-22T05:47:20.933Z,29.30
2023-05-22T05:47:51.063Z,29.30
2023-05-22T05:48:21.053Z,29.32
2023-05-22T05:48:51.056Z,29.30
2023-05-22T05:49:21.056Z,29.29
2023-05-22T05:49:51.174Z,29.26
2023-05-22T05:50:21.162Z,29.29
2023-05-22T05:50:51.282Z,29.25
2023-05-22T05:51:21.342Z,29.28
2023-05-22T05:51:51.322Z,29.26
2023-05-22T05:52:21.442Z,29.28
2023-05-22T05:52:51.529Z,29.25
2023-05-22T05:53:21.506Z,29.28
2023-05-22T05:53:51.623Z,29.28
2023-05-22T05:54:21.617Z,29.25
2023-05-22T05:54:51.736Z,29.28
2023-05-22T05:55:21.877Z,29.28
2023-05-22T05:55:51.970Z,29.26
2023-05-22T05:56:22.089Z,29.28
2023-05-22T05:56:52.210Z,29.23
2023-05-22T05:57:22.333Z,29.22
2023-05-22T05:57:52.433Z,29.22
2023-05-22T05:58:22.426Z,29.23
2023-05-22T05:58:52.415Z,29.23
2023-05-22T05:59:22.435Z,29.22
2023-05-22T05:59:52.425Z,29.21
2023-05-22T06:00:22.454Z,29.22
2023-05-22T06:00:52.560Z,29.22
2023-05-22T06:01:22.682Z,29.23
2023-05-22T06:01:52.673Z,29.23
2023-05-22T06:02:22.933Z,29.26
2023-05-22T06:02:52.954Z,29.23
2023-05-22T06:03:22.990Z,29.28
2023-05-22T06:03:53.254Z,29.28
2023-05-22T06:04:23.007Z,29.29
2023-05-22T06:04:53.041Z,29.28
2023-05-22T06:05:23.308Z,29.26
2023-05-22T06:05:53.193Z,29.33
2023-05-22T06:06:23.200Z,29.33
2023-05-22T06:06:53.215Z,29.32
2023-05-22T06:07:23.214Z,29.32
2023-05-22T06:07:53.225Z,29.32
2023-05-22T06:08:23.343Z,29.32
2023-05-22T06:08:53.306Z,29.32
2023-05-22T06:09:53.421Z,29.33
2023-05-22T06:10:23.548Z,29.32
2023-05-22T06:10:53.669Z,29.33
2023-05-22T06:11:23.670Z,29.33
2023-05-22T06:11:53.682Z,29.34
2023-05-22T06:12:23.715Z,29.33
2023-05-22T06:12:53.713Z,29.33
2023-05-22T06:13:23.720Z,29.34
2023-05-22T06:13:53.741Z,29.32
2023-05-22T06:14:23.864Z,29.30
2023-05-22T06:14:53.867Z,29.32
2023-05-22T06:15:23.980Z,29.33
2023-05-22T06:15:54.128Z,29.33
2023-05-22T06:16:24.137Z,29.32
2023-05-22T06:16:54.223Z,29.32
2023-05-22T06:17:24.202Z,29.33
2023-05-22T06:17:54.216Z,29.33
2023-05-22T06:18:24.199Z,29.32
2023-05-22T06:19:24.316Z,29.33
2023-05-22T06:19:54.362Z,29.34
2023-05-22T06:20:24.494Z,29.37
2023-05-22T06:20:54.486Z,29.36
2023-05-22T06:21:24.626Z,29.36
2023-05-22T06:21:54.632Z,29.37
2023-05-22T06:22:24.749Z,29.36
2023-05-22T06:22:54.861Z,29.37
2023-05-22T06:23:24.860Z,29.37
2023-05-22T06:23:54.976Z,29.40
2023-05-22T06:24:25.013Z,29.39
2023-05-22T06:24:55.004Z,29.40
2023-05-22T06:25:25.003Z,29.39
2023-05-22T06:25:55.120Z,29.39
2023-05-22T06:26:25.138Z,29.40
2023-05-22T06:26:55.216Z,29.37
2023-05-22T06:27:25.300Z,29.39
2023-05-22T06:27:55.376Z,29.39
2023-05-22T06:28:25.471Z,29.40
2023-05-22T06:28:55.546Z,29.40
2023-05-22T06:29:25.648Z,29.41
2023-05-22T06:29:56.488Z,29.39
2023-05-22T06:30:38.716Z,29.37
2023-05-22T06:30:55.734Z,29.40
2023-05-22T06:31:25.824Z,29.40
2023-05-22T06:31:55.941Z,29.41
2023-05-22T06:32:26.011Z,29.43
2023-05-22T06:32:56.236Z,29.40
2023-05-22T06:33:26.107Z,29.43
2023-05-22T06:33:56.267Z,29.41
2023-05-22T06:34:26.210Z,29.43
2023-05-22T06:34:56.365Z,29.44
2023-05-22T06:35:26.345Z,29.43
2023-05-22T06:35:56.422Z,29.46
2023-05-22T06:36:26.419Z,29.41
2023-05-22T06:36:56.414Z,29.46
2023-05-22T06:37:26.531Z,29.44
2023-05-22T06:37:56.528Z,29.44
2023-05-22T06:38:56.814Z,29.47